Weather observations for the past three days for
Hobart, Hobart Municipal Airport
Imperial (Metric)
Date Time (cdt) Wind (mph) Vis. (mi.) Weather Sky Cond. Temperature (ºF) Relative Humidity Wind Chill (°F) Heat Index (°F) Pressure Precipitation (in)
Air Dwpt 6 hour altimeter (in) sea level (mb) 1 hr 3 hr 6 hr
Max. Min.
06 16:53 NE 14 G 23 10.00 Fair CLR 66.9 39 36% 29.99 1014.9
06 15:53 E 14 G 22 10.00 Fair CLR 66.9 39 36% 30 1015.1
06 14:53 NE 10 G 22 10.00 A Few Clouds FEW050 66.9 39 36% 30.01 1015.7
06 13:53 NE 16 G 22 10.00 Partly Cloudy SCT044 64.9 39.9 40% 30.02 1016.0
06 12:53 E 13 G 22 10.00 A Few Clouds FEW036 61 41 61 48 48% 30.04 1016.9
06 11:53 E 13 G 23 10.00 A Few Clouds FEW031 59 41 51% 30.05 1017.4
06 10:53 E 10 G 23 10.00 Partly Cloudy SCT027 55.9 39.9 55% 30.05 1017.4
06 09:53 NE 20 10.00 Partly Cloudy SCT026 54 39 57% 30.04 1017.1
06 08:53 NE 23 10.00 Fair and Breezy CLR 50 39 66% 44 30.02 1016.4
06 07:53 NE 17 G 25 10.00 Fair CLR 48.9 39.9 71% 43 30.03 1016.5
06 06:53 NE 13 10.00 Fair CLR 48 39.9 50 46.9 74% 43 30 1015.7
06 05:53 NE 13 10.00 Fair CLR 48 39 71% 43 29.98 1014.9
06 04:53 NE 17 10.00 Overcast FEW027 OVC039 48.9 39 69% 43 29.99 1015.1
06 03:53 NE 15 10.00 Overcast OVC038 50 36 59% 45 29.97 1014.5
06 02:53 NE 15 10.00 Overcast OVC030 50 36 59% 45 29.95 1013.9
06 01:53 NE 16 10.00 Overcast OVC025 48.9 37 64% 44 29.91 1012.5
06 00:53 NE 20 10.00 Overcast OVC022 50 39.9 55 50 68% 44 29.92 1012.7
05 23:53 NE 22 G 33 10.00 Overcast and Breezy OVC020 50 41 71% 44 29.92 1012.5
05 22:53 NE 17 G 26 10.00 Overcast OVC023 50 42.1 74% 45 29.91 1012.3
05 21:53 NE 14 10.00 Fair CLR 50 42.1 74% 45 29.89 1011.6
05 20:53 NE 15 10.00 Fair CLR 52 42.1 69% 29.86 1010.3
05 19:53 NE 23 G 33 10.00 Mostly Cloudy and Breezy BKN031 54 42.1 64% 29.82 1009.0
05 18:53 NE 22 G 29 10.00 Overcast and Breezy OVC031 55 42.1 60.1 55 62% 29.84 1009.6
05 17:53 NE 18 10.00 Overcast OVC029 55.9 43 62% 29.83 1009.3
05 16:53 NE 21 G 31 10.00 Overcast and Breezy OVC024 57 44.1 62% 29.82 1008.8
05 15:53 NE 22 G 30 10.00 Overcast and Breezy OVC022 57 44.1 62% 29.81 1008.4
05 14:53 NE 21 G 28 10.00 Overcast and Breezy OVC019 55 45 69% 29.84 1009.4
05 13:53 N 24 G 37 10.00 Overcast and Breezy OVC024 60.1 46 60% 29.78 1007.5
05 12:53 N 23 G 33 10.00 Overcast and Breezy OVC026 60.1 46 66.9 60.1 60% 29.78 1007.3
05 11:53 N 21 G 32 10.00 Overcast and Breezy OVC024 61 46 58% 29.76 1006.4
05 10:53 N 22 G 33 10.00 Overcast and Breezy OVC021 62.1 48 60% 29.73 1005.3
05 09:53 N 26 G 35 10.00 Overcast and Windy OVC018 62.1 48.9 62% 29.7 1004.1
05 08:53 N 24 G 31 10.00 Overcast and Breezy OVC017 66 57 73% 29.64 1002.1
05 07:53 N 17 10.00 Fair CLR 63 50 63% 29.6 1000.7
05 06:53 S 13 10.00 Fair CLR 62.1 48.9 73 62.1 62% 29.55 998.9
05 05:53 S 13 10.00 Fair CLR 64 50 60% 29.54 998.2
05 04:53 S 14 10.00 Fair CLR 66 50 56% 29.52 997.6
05 03:53 S 14 10.00 Fair CLR 66.9 57 71% 29.52 997.5
05 02:53 S 14 10.00 Fair CLR 69.1 60.1 73% 29.53 997.7
05 01:53 S 12 10.00 Fair CLR 68 57.9 70% 29.55 998.6
05 00:53 S 12 10.00 Fair CLR 73 60.1 91 73 64% 29.56 999.0
04 23:53 S 16 10.00 Fair CLR 75.9 60.1 58% 78 29.57 999.3
04 22:53 S 21 G 32 10.00 Fair and Breezy CLR 78.1 59 52% 79 29.57 999.3
04 21:53 S 22 10.00 Fair and Breezy CLR 81 57.9 45% 81 29.56 999.1
04 20:53 S 23 G 32 10.00 Fair and Breezy CLR 82.9 57 41% 82 29.55 998.7
04 19:53 SW 22 G 31 10.00 Fair and Breezy CLR 87.1 46.9 25% 84 29.53 998.1
04 18:53 SW 10 10.00 Fair CLR 90 45 96.1 84 21% 86 29.53 998.3
04 17:53 S 21 10.00 Fair and Breezy CLR 90 48.9 24% 87 29.55 998.9
04 16:53 SW 25 G 35 10.00 Fair and Breezy CLR 96.1 39.9 14% 92 29.55 998.7
04 15:53 SW 23 G 33 10.00 Fair and Breezy CLR 95 46 19% 91 29.59 1000.0
04 14:53 SW 25 G 35 10.00 Fair and Breezy CLR 91.9 46 21% 88 29.63 1001.5
04 13:53 SW 22 G 32 10.00 Fair and Breezy CLR 89.1 48 24% 86 29.67 1002.7
04 12:53 SW 18 G 29 10.00 Fair CLR 84 50 84 60.1 31% 82 29.71 1004.2
04 11:53 SW 24 G 33 10.00 Fair and Breezy CLR 80.1 50 35% 80 29.73 1004.9
04 10:53 SW 26 G 36 10.00 Fair and Windy CLR 75 48.9 40% 77 29.75 1005.8
04 09:53 SW 28 G 35 10.00 Fair and Windy CLR 71.1 48 44% 29.76 1006.1
04 08:53 S 23 G 32 10.00 Fair and Breezy CLR 64.9 48 54% 29.78 1006.9
04 07:53 S 18 10.00 Fair CLR 62.1 48 60% 29.77 1006.7
04 06:53 S 18 10.00 Fair CLR 60.1 46.9 66.9 59 62% 29.77 1006.6
04 05:53 S 17 10.00 Fair CLR 60.1 45 58% 29.78 1006.9
04 04:53 S 16 10.00 Fair CLR 61 44.1 54% 29.8 1007.6
04 03:53 S 16 10.00 Fair CLR 62.1 44.1 52% 29.81 1007.8
04 02:53 S 16 10.00 Fair CLR 63 44.1 50% 29.84 1008.6
04 01:53 S 20 G 29 10.00 Fair CLR 64.9 43 45% 29.85 1009.2
04 00:53 S 21 10.00 Fair and Breezy CLR 66.9 42.1 82 66.9 41% 29.87 1009.8
03 23:53 S 23 G 31 10.00 Fair and Breezy CLR 69.1 41 36% 29.88 1010.3
03 22:53 S 21 G 29 10.00 Fair and Breezy CLR 69.1 42.1 38% 29.89 1010.6
03 21:53 S 22 G 32 10.00 Fair and Breezy CLR 72 42.1 34% 29.88 1010.5
03 20:53 S 18 G 26 10.00 Fair CLR 73.9 39.9 29% 29.88 1010.3
03 19:53 SW 20 10.00 Fair CLR 79 37.9 23% 78 29.87 1010.4
03 17:53 SW 21 G 40 10.00 Fair and Breezy CLR 84 37 19% 81 29.89 1011.1
Date Time (cdt) Wind (mph) Vis. (mi.) Weather Sky Cond. Air Dwpt Max. Min. Relative Humidity Wind Chill (°F) Heat Index (°F) altimeter (in) sea level (mb) 1 hr 3 hr 6 hr
6 hour
Temperature (ºF) Pressure Precipitation (in)